sensor_id;sensor_type;location;lat;lon;timestamp;pressure;altitude;pressure_sealevel;temperature;humidity
49943;BME280;36011;53.362;58.948;2023-04-27T00:01:21;96837.81;;;12.42;39.13
49943;BME280;36011;53.362;58.948;2023-04-27T00:04:25;96854.53;;;12.43;39.17
49943;BME280;36011;53.362;58.948;2023-04-27T00:07:30;96852.19;;;12.38;39.14
49943;BME280;36011;53.362;58.948;2023-04-27T00:10:35;96860.00;;;12.40;39.07
49943;BME280;36011;53.362;58.948;2023-04-27T00:13:39;96864.22;;;12.42;39.10
49943;BME280;36011;53.362;58.948;2023-04-27T00:16:43;96867.59;;;12.44;39.04
49943;BME280;36011;53.362;58.948;2023-04-27T00:19:48;96862.69;;;12.51;38.86
49943;BME280;36011;53.362;58.948;2023-04-27T00:22:53;96872.72;;;12.58;38.50
49943;BME280;36011;53.362;58.948;2023-04-27T00:25:58;96891.25;;;12.70;38.53
49943;BME280;36011;53.362;58.948;2023-04-27T00:29:03;96880.06;;;12.90;38.35
49943;BME280;36011;53.362;58.948;2023-04-27T00:32:08;96897.78;;;12.77;38.41
49943;BME280;36011;53.362;58.948;2023-04-27T00:35:14;96904.00;;;12.76;38.29
49943;BME280;36011;53.362;58.948;2023-04-27T00:38:19;96896.84;;;12.65;38.73
49943;BME280;36011;53.362;58.948;2023-04-27T00:41:23;96903.75;;;12.79;38.60
49943;BME280;36011;53.362;58.948;2023-04-27T00:44:28;96910.97;;;12.77;38.52
49943;BME280;36011;53.362;58.948;2023-04-27T00:47:32;96911.97;;;12.87;38.32
49943;BME280;36011;53.362;58.948;2023-04-27T00:50:37;96900.94;;;12.93;38.32
49943;BME280;36011;53.362;58.948;2023-04-27T00:53:43;96938.66;;;12.71;38.52
49943;BME280;36011;53.362;58.948;2023-04-27T00:56:51;96908.22;;;12.78;38.20
49943;BME280;36011;53.362;58.948;2023-04-27T00:59:58;96862.75;;;12.86;37.78
49943;BME280;36011;53.362;58.948;2023-04-27T01:03:03;96852.44;;;12.83;37.27
49943;BME280;36011;53.362;58.948;2023-04-27T01:06:08;96837.56;;;12.93;37.40
49943;BME280;36011;53.362;58.948;2023-04-27T01:09:11;96825.94;;;12.96;37.37
49943;BME280;36011;53.362;58.948;2023-04-27T01:12:16;96834.50;;;12.99;37.36
49943;BME280;36011;53.362;58.948;2023-04-27T01:15:21;96845.09;;;13.11;37.33
49943;BME280;36011;53.362;58.948;2023-04-27T01:18:26;96831.47;;;13.28;36.73
49943;BME280;36011;53.362;58.948;2023-04-27T01:21:33;96834.13;;;13.39;36.41
49943;BME280;36011;53.362;58.948;2023-04-27T01:24:38;96822.59;;;13.52;36.00
49943;BME280;36011;53.362;58.948;2023-04-27T01:27:44;96826.22;;;13.62;35.84
49943;BME280;36011;53.362;58.948;2023-04-27T01:30:48;96818.28;;;13.73;35.39
49943;BME280;36011;53.362;58.948;2023-04-27T01:33:52;96829.09;;;13.81;35.02
49943;BME280;36011;53.362;58.948;2023-04-27T01:36:56;96829.78;;;14.17;34.45
49943;BME280;36011;53.362;58.948;2023-04-27T01:40:01;96829.09;;;13.92;35.15
49943;BME280;36011;53.362;58.948;2023-04-27T01:43:08;96832.94;;;13.88;35.31
49943;BME280;36011;53.362;58.948;2023-04-27T01:46:14;96824.66;;;13.82;35.55
49943;BME280;36011;53.362;58.948;2023-04-27T01:49:19;96835.34;;;13.69;36.09
49943;BME280;36011;53.362;58.948;2023-04-27T01:52:23;96839.44;;;13.73;36.20
49943;BME280;36011;53.362;58.948;2023-04-27T01:55:27;96841.13;;;13.63;36.56
49943;BME280;36011;53.362;58.948;2023-04-27T01:58:31;96847.72;;;13.57;36.48
49943;BME280;36011;53.362;58.948;2023-04-27T02:01:38;96838.47;;;13.52;36.73
49943;BME280;36011;53.362;58.948;2023-04-27T02:04:43;96844.00;;;13.48;37.02
49943;BME280;36011;53.362;58.948;2023-04-27T02:07:49;96849.22;;;13.26;37.52
49943;BME280;36011;53.362;58.948;2023-04-27T02:10:54;96852.41;;;13.18;37.68
49943;BME280;36011;53.362;58.948;2023-04-27T02:13:59;96849.41;;;13.12;38.04
49943;BME280;36011;53.362;58.948;2023-04-27T02:17:05;96868.25;;;13.18;38.01
49943;BME280;36011;53.362;58.948;2023-04-27T02:20:10;96870.56;;;13.23;38.16
49943;BME280;36011;53.362;58.948;2023-04-27T02:23:14;96861.00;;;13.33;38.13
49943;BME280;36011;53.362;58.948;2023-04-27T02:26:19;96842.63;;;13.32;38.18
49943;BME280;36011;53.362;58.948;2023-04-27T02:29:28;96833.75;;;13.33;38.40
49943;BME280;36011;53.362;58.948;2023-04-27T02:32:33;96847.31;;;13.28;38.44
49943;BME280;36011;53.362;58.948;2023-04-27T02:35:38;96849.13;;;13.39;38.22
49943;BME280;36011;53.362;58.948;2023-04-27T02:38:42;96868.50;;;13.51;38.22
49943;BME280;36011;53.362;58.948;2023-04-27T02:41:47;96878.59;;;13.57;38.13
49943;BME280;36011;53.362;58.948;2023-04-27T02:44:52;96874.03;;;13.70;37.91
49943;BME280;36011;53.362;58.948;2023-04-27T02:47:56;96877.16;;;13.75;38.20
49943;BME280;36011;53.362;58.948;2023-04-27T02:51:03;96871.50;;;13.46;38.72
49943;BME280;36011;53.362;58.948;2023-04-27T02:54:09;96861.41;;;13.40;38.84
49943;BME280;36011;53.362;58.948;2023-04-27T02:57:14;96870.66;;;13.45;38.53
49943;BME280;36011;53.362;58.948;2023-04-27T03:00:19;96878.59;;;13.57;38.70
49943;BME280;36011;53.362;58.948;2023-04-27T03:03:23;96867.44;;;13.76;38.29
49943;BME280;36011;53.362;58.948;2023-04-27T03:06:28;96859.16;;;13.80;38.17
49943;BME280;36011;53.362;58.948;2023-04-27T03:09:32;96849.41;;;14.03;37.79
49943;BME280;36011;53.362;58.948;2023-04-27T03:12:36;96849.28;;;14.16;37.69
49943;BME280;36011;53.362;58.948;2023-04-27T03:15:41;96852.16;;;14.24;37.52
49943;BME280;36011;53.362;58.948;2023-04-27T03:18:46;96856.13;;;14.52;36.84
49943;BME280;36011;53.362;58.948;2023-04-27T03:21:52;96852.94;;;14.70;36.58
49943;BME280;36011;53.362;58.948;2023-04-27T03:24:57;96848.34;;;14.60;36.61
49943;BME280;36011;53.362;58.948;2023-04-27T03:28:07;96855.03;;;14.87;36.23
49943;BME280;36011;53.362;58.948;2023-04-27T03:31:12;96863.56;;;14.91;36.10
49943;BME280;36011;53.362;58.948;2023-04-27T03:34:21;96861.63;;;14.93;36.18
49943;BME280;36011;53.362;58.948;2023-04-27T03:37:28;96858.78;;;15.05;36.06
49943;BME280;36011;53.362;58.948;2023-04-27T03:40:34;96859.78;;;15.25;35.76
49943;BME280;36011;53.362;58.948;2023-04-27T03:43:41;96864.91;;;15.38;35.74
49943;BME280;36011;53.362;58.948;2023-04-27T03:46:44;96864.31;;;15.77;35.03
49943;BME280;36011;53.362;58.948;2023-04-27T03:49:49;96859.59;;;15.80;35.02
49943;BME280;36011;53.362;58.948;2023-04-27T03:52:55;96860.25;;;16.03;34.77
49943;BME280;36011;53.362;58.948;2023-04-27T03:56:03;96842.00;;;16.20;34.24
49943;BME280;36011;53.362;58.948;2023-04-27T03:59:09;96830.28;;;16.32;34.16
49943;BME280;36011;53.362;58.948;2023-04-27T04:02:12;96834.66;;;16.52;34.00
49943;BME280;36011;53.362;58.948;2023-04-27T04:05:17;96825.06;;;16.80;33.58
49943;BME280;36011;53.362;58.948;2023-04-27T04:08:21;96825.22;;;16.98;33.33
49943;BME280;36011;53.362;58.948;2023-04-27T04:11:29;96831.34;;;17.28;32.81
49943;BME280;36011;53.362;58.948;2023-04-27T04:14:36;96825.13;;;17.57;32.17
49943;BME280;36011;53.362;58.948;2023-04-27T04:17:41;96832.91;;;17.87;31.93
49943;BME280;36011;53.362;58.948;2023-04-27T04:20:57;96841.91;;;18.14;31.39
49943;BME280;36011;53.362;58.948;2023-04-27T04:24:02;96843.41;;;18.26;31.62
49943;BME280;36011;53.362;58.948;2023-04-27T04:27:07;96828.69;;;18.22;31.64
49943;BME280;36011;53.362;58.948;2023-04-27T04:30:14;96837.16;;;18.17;31.49
49943;BME280;36011;53.362;58.948;2023-04-27T04:33:20;96839.47;;;18.48;31.29
49943;BME280;36011;53.362;58.948;2023-04-27T04:36:23;96852.19;;;18.82;30.79
49943;BME280;36011;53.362;58.948;2023-04-27T04:39:33;96860.16;;;19.54;29.85
49943;BME280;36011;53.362;58.948;2023-04-27T04:42:41;96880.81;;;20.22;29.22
49943;BME280;36011;53.362;58.948;2023-04-27T04:45:46;96849.72;;;20.55;28.66
49943;BME280;36011;53.362;58.948;2023-04-27T04:48:54;96835.06;;;20.67;28.51
49943;BME280;36011;53.362;58.948;2023-04-27T04:51:58;96840.66;;;21.31;27.67
49943;BME280;36011;53.362;58.948;2023-04-27T04:55:02;96830.84;;;22.20;26.43
49943;BME280;36011;53.362;58.948;2023-04-27T04:58:08;96841.97;;;22.79;25.70
49943;BME280;36011;53.362;58.948;2023-04-27T05:01:14;96835.34;;;22.59;25.93
49943;BME280;36011;53.362;58.948;2023-04-27T05:04:21;96796.69;;;22.06;26.40
49943;BME280;36011;53.362;58.948;2023-04-27T05:07:27;96796.97;;;22.27;26.48
49943;BME280;36011;53.362;58.948;2023-04-27T05:10:34;96819.09;;;22.13;26.50
49943;BME280;36011;53.362;58.948;2023-04-27T05:13:38;96812.50;;;21.76;27.17
49943;BME280;36011;53.362;58.948;2023-04-27T05:16:41;96814.25;;;21.44;27.61
49943;BME280;36011;53.362;58.948;2023-04-27T05:19:46;96814.53;;;21.08;28.05
49943;BME280;36011;53.362;58.948;2023-04-27T05:22:50;96809.53;;;20.97;27.88
49943;BME280;36011;53.362;58.948;2023-04-27T05:25:55;96810.47;;;20.63;28.49
49943;BME280;36011;53.362;58.948;2023-04-27T05:28:58;96806.84;;;20.73;28.48
49943;BME280;36011;53.362;58.948;2023-04-27T05:32:01;96809.88;;;21.19;28.40
49943;BME280;36011;53.362;58.948;2023-04-27T05:35:08;96814.47;;;21.98;27.17
49943;BME280;36011;53.362;58.948;2023-04-27T05:38:16;96828.00;;;22.84;26.43
49943;BME280;36011;53.362;58.948;2023-04-27T05:41:21;96820.75;;;23.77;24.91
49943;BME280;36011;53.362;58.948;2023-04-27T05:44:26;96829.28;;;24.39;24.33
49943;BME280;36011;53.362;58.948;2023-04-27T05:47:35;96831.66;;;24.79;23.87
49943;BME280;36011;53.362;58.948;2023-04-27T05:50:40;96840.53;;;24.94;23.23
49943;BME280;36011;53.362;58.948;2023-04-27T05:53:45;96825.22;;;25.59;22.73
49943;BME280;36011;53.362;58.948;2023-04-27T05:56:50;96838.22;;;26.47;21.33
49943;BME280;36011;53.362;58.948;2023-04-27T05:59:57;96835.50;;;26.95;21.02
49943;BME280;36011;53.362;58.948;2023-04-27T06:03:12;96828.56;;;27.67;20.25
49943;BME280;36011;53.362;58.948;2023-04-27T06:06:26;96827.31;;;27.96;19.79
49943;BME280;36011;53.362;58.948;2023-04-27T06:09:45;96824.63;;;27.83;19.99
49943;BME280;36011;53.362;58.948;2023-04-27T06:12:50;96829.81;;;27.91;20.11
49943;BME280;36011;53.362;58.948;2023-04-27T06:16:00;96828.56;;;28.00;19.97
49943;BME280;36011;53.362;58.948;2023-04-27T06:19:05;96819.84;;;27.98;20.09
49943;BME280;36011;53.362;58.948;2023-04-27T06:22:10;96816.31;;;27.77;20.22
49943;BME280;36011;53.362;58.948;2023-04-27T06:25:16;96821.72;;;27.77;20.39
49943;BME280;36011;53.362;58.948;2023-04-27T06:28:19;96810.88;;;28.04;20.36
49943;BME280;36011;53.362;58.948;2023-04-27T06:31:24;96811.09;;;27.63;20.78
49943;BME280;36011;53.362;58.948;2023-04-27T06:34:41;96826.88;;;27.19;21.19
49943;BME280;36011;53.362;58.948;2023-04-27T06:37:49;96822.75;;;27.43;21.17
49943;BME280;36011;53.362;58.948;2023-04-27T06:40:54;96820.66;;;27.19;21.36
49943;BME280;36011;53.362;58.948;2023-04-27T06:44:02;96811.38;;;26.73;21.75
49943;BME280;36011;53.362;58.948;2023-04-27T06:47:06;96807.13;;;26.51;22.09
49943;BME280;36011;53.362;58.948;2023-04-27T06:50:12;96790.03;;;26.43;22.26
49943;BME280;36011;53.362;58.948;2023-04-27T06:53:17;96789.78;;;26.25;22.40
49943;BME280;36011;53.362;58.948;2023-04-27T06:56:22;96785.25;;;25.41;23.73
49943;BME280;36011;53.362;58.948;2023-04-27T06:59:27;96777.63;;;25.17;24.01
49943;BME280;36011;53.362;58.948;2023-04-27T07:02:32;96780.13;;;25.46;24.01
49943;BME280;36011;53.362;58.948;2023-04-27T07:05:39;96777.44;;;26.09;23.43
49943;BME280;36011;53.362;58.948;2023-04-27T07:08:42;96763.03;;;26.92;22.28
49943;BME280;36011;53.362;58.948;2023-04-27T07:11:46;96768.50;;;27.31;21.91
49943;BME280;36011;53.362;58.948;2023-04-27T07:14:51;96760.38;;;27.31;21.87
49943;BME280;36011;53.362;58.948;2023-04-27T07:17:56;96762.22;;;27.77;21.71
49943;BME280;36011;53.362;58.948;2023-04-27T07:21:38;96761.78;;;27.94;21.27
49943;BME280;36011;53.362;58.948;2023-04-27T07:24:42;96763.88;;;27.85;21.42
49943;BME280;36011;53.362;58.948;2023-04-27T07:27:49;96757.59;;;28.05;21.33
49943;BME280;36011;53.362;58.948;2023-04-27T07:30:56;96760.34;;;27.98;21.31
49943;BME280;36011;53.362;58.948;2023-04-27T07:34:02;96750.38;;;27.65;21.42
49943;BME280;36011;53.362;58.948;2023-04-27T07:37:11;96754.59;;;27.35;22.16
49943;BME280;36011;53.362;58.948;2023-04-27T07:40:19;96750.78;;;27.09;22.44
49943;BME280;36011;53.362;58.948;2023-04-27T07:43:30;96754.53;;;27.08;22.46
49943;BME280;36011;53.362;58.948;2023-04-27T07:46:34;96743.25;;;26.78;22.80
49943;BME280;36011;53.362;58.948;2023-04-27T07:49:40;96744.13;;;26.78;22.94
49943;BME280;36011;53.362;58.948;2023-04-27T07:52:44;96739.31;;;26.67;23.00
49943;BME280;36011;53.362;58.948;2023-04-27T07:55:50;96736.22;;;26.70;23.02
49943;BME280;36011;53.362;58.948;2023-04-27T07:58:56;96736.63;;;26.67;22.67
49943;BME280;36011;53.362;58.948;2023-04-27T08:02:02;96730.47;;;26.32;23.29
49943;BME280;36011;53.362;58.948;2023-04-27T08:05:17;96719.59;;;26.73;22.86
49943;BME280;36011;53.362;58.948;2023-04-27T08:08:27;96724.13;;;26.53;23.03
49943;BME280;36011;53.362;58.948;2023-04-27T08:11:33;96732.47;;;26.71;22.47
49943;BME280;36011;53.362;58.948;2023-04-27T08:14:38;96731.28;;;26.32;22.92
49943;BME280;36011;53.362;58.948;2023-04-27T08:17:42;96733.47;;;26.57;23.07
49943;BME280;36011;53.362;58.948;2023-04-27T08:20:47;96729.22;;;27.22;22.34
49943;BME280;36011;53.362;58.948;2023-04-27T08:23:58;96722.50;;;27.91;21.65
49943;BME280;36011;53.362;58.948;2023-04-27T08:27:02;96729.06;;;28.67;20.40
49943;BME280;36011;53.362;58.948;2023-04-27T08:30:06;96735.91;;;29.33;19.93
49943;BME280;36011;53.362;58.948;2023-04-27T08:33:13;96730.16;;;30.10;19.36
49943;BME280;36011;53.362;58.948;2023-04-27T08:36:20;96722.53;;;30.85;18.22
49943;BME280;36011;53.362;58.948;2023-04-27T08:39:27;96718.59;;;30.51;19.01
49943;BME280;36011;53.362;58.948;2023-04-27T08:42:34;96708.16;;;29.99;19.16
49943;BME280;36011;53.362;58.948;2023-04-27T08:45:48;96704.00;;;31.60;18.28
49943;BME280;36011;53.362;58.948;2023-04-27T08:48:58;96700.44;;;33.38;16.71
49943;BME280;36011;53.362;58.948;2023-04-27T08:52:02;96693.66;;;34.62;15.21
49943;BME280;36011;53.362;58.948;2023-04-27T08:55:06;96698.16;;;33.68;14.96
49943;BME280;36011;53.362;58.948;2023-04-27T08:58:10;96696.13;;;33.59;15.28
49943;BME280;36011;53.362;58.948;2023-04-27T09:01:19;96687.78;;;34.26;14.97
49943;BME280;36011;53.362;58.948;2023-04-27T09:04:23;96696.03;;;34.80;13.75
49943;BME280;36011;53.362;58.948;2023-04-27T09:07:27;96676.13;;;33.36;14.59
49943;BME280;36011;53.362;58.948;2023-04-27T09:10:44;96680.16;;;33.50;14.84
49943;BME280;36011;53.362;58.948;2023-04-27T09:13:49;96665.25;;;32.45;15.06
49943;BME280;36011;53.362;58.948;2023-04-27T09:17:00;96672.00;;;32.71;14.38
49943;BME280;36011;53.362;58.948;2023-04-27T09:20:05;96661.69;;;32.73;14.91
49943;BME280;36011;53.362;58.948;2023-04-27T09:23:50;96671.13;;;32.82;15.42
49943;BME280;36011;53.362;58.948;2023-04-27T09:26:53;96673.25;;;31.36;15.94
49943;BME280;36011;53.362;58.948;2023-04-27T09:29:57;96663.31;;;30.46;16.81
49943;BME280;36011;53.362;58.948;2023-04-27T09:33:02;96649.63;;;28.80;18.19
49943;BME280;36011;53.362;58.948;2023-04-27T09:36:09;96648.59;;;28.49;18.36
49943;BME280;36011;53.362;58.948;2023-04-27T09:39:15;96655.28;;;28.40;18.19
49943;BME280;36011;53.362;58.948;2023-04-27T09:42:21;96660.09;;;28.70;17.96
49943;BME280;36011;53.362;58.948;2023-04-27T09:45:28;96652.78;;;28.00;18.39
49943;BME280;36011;53.362;58.948;2023-04-27T09:48:33;96669.38;;;26.99;19.38
49943;BME280;36011;53.362;58.948;2023-04-27T09:51:38;96649.84;;;26.70;19.70
49943;BME280;36011;53.362;58.948;2023-04-27T09:54:42;96635.50;;;26.63;19.54
49943;BME280;36011;53.362;58.948;2023-04-27T09:58:20;96647.53;;;26.80;19.24
49943;BME280;36011;53.362;58.948;2023-04-27T10:01:49;96651.34;;;26.05;19.73
49943;BME280;36011;53.362;58.948;2023-04-27T10:05:15;96660.66;;;25.67;19.59
49943;BME280;36011;53.362;58.948;2023-04-27T10:08:25;96641.00;;;25.32;19.40
49943;BME280;36011;53.362;58.948;2023-04-27T10:11:42;96638.34;;;25.10;19.22
49943;BME280;36011;53.362;58.948;2023-04-27T10:14:55;96646.31;;;25.19;18.97
49943;BME280;36011;53.362;58.948;2023-04-27T10:18:10;96641.94;;;25.52;18.73
49943;BME280;36011;53.362;58.948;2023-04-27T10:21:14;96626.44;;;26.03;18.36
49943;BME280;36011;53.362;58.948;2023-04-27T10:24:19;96611.81;;;26.52;18.16
49943;BME280;36011;53.362;58.948;2023-04-27T10:27:39;96631.97;;;27.02;17.74
49943;BME280;36011;53.362;58.948;2023-04-27T10:30:45;96623.22;;;27.14;17.08
49943;BME280;36011;53.362;58.948;2023-04-27T10:33:52;96611.22;;;27.16;17.25
49943;BME280;36011;53.362;58.948;2023-04-27T10:37:07;96593.94;;;27.30;16.90
49943;BME280;36011;53.362;58.948;2023-04-27T10:40:16;96588.34;;;27.19;16.66
49943;BME280;36011;53.362;58.948;2023-04-27T10:43:24;96605.16;;;27.14;16.08
49943;BME280;36011;53.362;58.948;2023-04-27T10:46:30;96621.56;;;27.06;15.75
49943;BME280;36011;53.362;58.948;2023-04-27T10:49:40;96599.59;;;26.62;16.14
49943;BME280;36011;53.362;58.948;2023-04-27T10:52:44;96592.44;;;26.15;16.07
49943;BME280;36011;53.362;58.948;2023-04-27T10:55:55;96588.94;;;25.60;17.40
49943;BME280;36011;53.362;58.948;2023-04-27T10:59:02;96586.81;;;25.48;17.80
49943;BME280;36011;53.362;58.948;2023-04-27T11:02:06;96610.34;;;25.33;18.81
49943;BME280;36011;53.362;58.948;2023-04-27T11:05:26;96595.66;;;25.07;19.22
49943;BME280;36011;53.362;58.948;2023-04-27T11:08:43;96592.81;;;24.59;20.05
49943;BME280;36011;53.362;58.948;2023-04-27T11:11:49;96585.06;;;24.43;20.33
49943;BME280;36011;53.362;58.948;2023-04-27T11:15:00;96570.63;;;24.51;20.09
49943;BME280;36011;53.362;58.948;2023-04-27T11:18:08;96566.84;;;24.45;20.37
49943;BME280;36011;53.362;58.948;2023-04-27T11:21:18;96579.63;;;24.64;20.21
49943;BME280;36011;53.362;58.948;2023-04-27T11:24:49;96558.13;;;24.99;20.10
49943;BME280;36011;53.362;58.948;2023-04-27T11:27:53;96565.44;;;25.05;19.61
49943;BME280;36011;53.362;58.948;2023-04-27T11:30:58;96571.72;;;25.61;18.87
49943;BME280;36011;53.362;58.948;2023-04-27T11:34:06;96564.94;;;25.71;18.98
49943;BME280;36011;53.362;58.948;2023-04-27T11:37:22;96561.06;;;25.87;18.67
49943;BME280;36011;53.362;58.948;2023-04-27T11:40:29;96585.13;;;25.47;19.16
49943;BME280;36011;53.362;58.948;2023-04-27T11:43:36;96552.03;;;25.53;19.50
49943;BME280;36011;53.362;58.948;2023-04-27T11:46:44;96555.53;;;25.13;19.53
49943;BME280;36011;53.362;58.948;2023-04-27T11:49:51;96557.97;;;25.07;19.99
49943;BME280;36011;53.362;58.948;2023-04-27T11:53:02;96557.19;;;25.55;19.12
49943;BME280;36011;53.362;58.948;2023-04-27T11:56:10;96565.63;;;25.39;19.45
49943;BME280;36011;53.362;58.948;2023-04-27T11:59:21;96538.25;;;25.28;18.54
49943;BME280;36011;53.362;58.948;2023-04-27T12:02:30;96556.72;;;25.03;19.07
49943;BME280;36011;53.362;58.948;2023-04-27T12:05:35;96563.97;;;25.03;18.92
49943;BME280;36011;53.362;58.948;2023-04-27T12:08:44;96561.16;;;24.83;19.28
49943;BME280;36011;53.362;58.948;2023-04-27T12:11:49;96554.31;;;24.80;19.12
49943;BME280;36011;53.362;58.948;2023-04-27T12:14:53;96567.34;;;25.12;19.12
49943;BME280;36011;53.362;58.948;2023-04-27T12:17:57;96578.44;;;24.74;19.26
49943;BME280;36011;53.362;58.948;2023-04-27T12:21:02;96580.19;;;24.60;19.82
49943;BME280;36011;53.362;58.948;2023-04-27T12:24:09;96565.56;;;24.19;19.97
49943;BME280;36011;53.362;58.948;2023-04-27T12:27:17;96568.44;;;24.18;19.19
49943;BME280;36011;53.362;58.948;2023-04-27T12:30:23;96564.84;;;23.89;19.50
49943;BME280;36011;53.362;58.948;2023-04-27T12:33:29;96560.63;;;23.65;19.66
49943;BME280;36011;53.362;58.948;2023-04-27T12:36:34;96551.31;;;23.46;19.96
49943;BME280;36011;53.362;58.948;2023-04-27T12:39:37;96577.41;;;23.38;20.13
49943;BME280;36011;53.362;58.948;2023-04-27T12:42:42;96556.66;;;23.10;20.58
49943;BME280;36011;53.362;58.948;2023-04-27T12:45:47;96566.34;;;23.11;20.81
49943;BME280;36011;53.362;58.948;2023-04-27T12:48:51;96553.53;;;22.83;21.57
49943;BME280;36011;53.362;58.948;2023-04-27T12:51:57;96557.19;;;22.53;22.29
49943;BME280;36011;53.362;58.948;2023-04-27T12:55:01;96570.19;;;22.41;22.29
49943;BME280;36011;53.362;58.948;2023-04-27T12:58:07;96546.94;;;22.18;22.69
49943;BME280;36011;53.362;58.948;2023-04-27T13:01:13;96555.78;;;21.96;22.85
49943;BME280;36011;53.362;58.948;2023-04-27T13:04:20;96558.03;;;21.84;22.93
49943;BME280;36011;53.362;58.948;2023-04-27T13:07:25;96550.31;;;21.89;23.04
49943;BME280;36011;53.362;58.948;2023-04-27T13:10:30;96543.31;;;21.88;23.02
49943;BME280;36011;53.362;58.948;2023-04-27T13:13:34;96549.00;;;22.08;22.82
49943;BME280;36011;53.362;58.948;2023-04-27T13:16:40;96549.13;;;21.92;23.02
49943;BME280;36011;53.362;58.948;2023-04-27T13:19:45;96552.78;;;21.68;23.04
49943;BME280;36011;53.362;58.948;2023-04-27T13:22:50;96556.22;;;21.53;23.50
49943;BME280;36011;53.362;58.948;2023-04-27T13:25:55;96547.44;;;21.37;23.95
49943;BME280;36011;53.362;58.948;2023-04-27T13:29:01;96551.81;;;21.29;24.02
49943;BME280;36011;53.362;58.948;2023-04-27T13:32:06;96544.84;;;21.20;24.04
49943;BME280;36011;53.362;58.948;2023-04-27T13:35:12;96539.63;;;21.19;24.17
49943;BME280;36011;53.362;58.948;2023-04-27T13:38:16;96548.38;;;21.13;24.20
49943;BME280;36011;53.362;58.948;2023-04-27T13:41:21;96541.22;;;20.97;24.11
49943;BME280;36011;53.362;58.948;2023-04-27T13:44:26;96549.41;;;21.03;23.67
49943;BME280;36011;53.362;58.948;2023-04-27T13:47:30;96558.41;;;21.11;23.27
49943;BME280;36011;53.362;58.948;2023-04-27T13:50:39;96539.59;;;21.27;23.22
49943;BME280;36011;53.362;58.948;2023-04-27T13:53:44;96552.94;;;21.35;22.96
49943;BME280;36011;53.362;58.948;2023-04-27T13:56:48;96545.91;;;21.42;22.84
49943;BME280;36011;53.362;58.948;2023-04-27T13:59:53;96557.41;;;21.51;22.82
49943;BME280;36011;53.362;58.948;2023-04-27T14:02:59;96561.31;;;21.40;22.88
49943;BME280;36011;53.362;58.948;2023-04-27T14:06:04;96562.31;;;21.31;22.97
49943;BME280;36011;53.362;58.948;2023-04-27T14:09:09;96535.13;;;21.19;23.23
49943;BME280;36011;53.362;58.948;2023-04-27T14:12:14;96536.50;;;21.07;23.28
49943;BME280;36011;53.362;58.948;2023-04-27T14:15:19;96530.41;;;20.82;23.71
49943;BME280;36011;53.362;58.948;2023-04-27T14:18:23;96527.06;;;20.80;23.83
49943;BME280;36011;53.362;58.948;2023-04-27T14:21:27;96526.47;;;20.61;23.83
49943;BME280;36011;53.362;58.948;2023-04-27T14:24:34;96525.47;;;20.54;24.17
49943;BME280;36011;53.362;58.948;2023-04-27T14:27:38;96530.81;;;20.54;24.08
49943;BME280;36011;53.362;58.948;2023-04-27T14:30:42;96528.97;;;20.47;24.01
49943;BME280;36011;53.362;58.948;2023-04-27T14:33:47;96529.13;;;20.29;24.36
49943;BME280;36011;53.362;58.948;2023-04-27T14:36:53;96529.81;;;20.23;23.58
49943;BME280;36011;53.362;58.948;2023-04-27T14:39:57;96523.16;;;20.02;24.01
49943;BME280;36011;53.362;58.948;2023-04-27T14:43:02;96520.63;;;20.01;23.68
49943;BME280;36011;53.362;58.948;2023-04-27T14:46:07;96530.00;;;19.96;23.68
49943;BME280;36011;53.362;58.948;2023-04-27T14:49:16;96518.47;;;19.71;24.03
49943;BME280;36011;53.362;58.948;2023-04-27T14:52:20;96522.78;;;19.72;24.08
49943;BME280;36011;53.362;58.948;2023-04-27T14:55:25;96525.56;;;19.55;24.42
49943;BME280;36011;53.362;58.948;2023-04-27T14:58:30;96534.06;;;19.50;24.29
49943;BME280;36011;53.362;58.948;2023-04-27T15:01:35;96528.69;;;19.42;24.30
49943;BME280;36011;53.362;58.948;2023-04-27T15:04:40;96534.72;;;19.44;24.67
49943;BME280;36011;53.362;58.948;2023-04-27T15:07:44;96532.81;;;19.20;24.67
49943;BME280;36011;53.362;58.948;2023-04-27T15:10:47;96523.63;;;19.14;24.63
49943;BME280;36011;53.362;58.948;2023-04-27T15:13:52;96527.63;;;19.18;24.42
49943;BME280;36011;53.362;58.948;2023-04-27T15:16:57;96529.22;;;18.95;24.82
49943;BME280;36011;53.362;58.948;2023-04-27T15:20:02;96532.47;;;18.80;25.41
49943;BME280;36011;53.362;58.948;2023-04-27T15:23:07;96526.97;;;18.82;25.05
49943;BME280;36011;53.362;58.948;2023-04-27T15:26:12;96520.47;;;18.76;25.13
49943;BME280;36011;53.362;58.948;2023-04-27T15:29:17;96531.13;;;18.76;25.33
49943;BME280;36011;53.362;58.948;2023-04-27T15:32:21;96528.38;;;18.68;25.48
49943;BME280;36011;53.362;58.948;2023-04-27T15:35:32;96529.50;;;18.57;25.94
49943;BME280;36011;53.362;58.948;2023-04-27T15:38:36;96528.63;;;18.49;26.01
49943;BME280;36011;53.362;58.948;2023-04-27T15:41:39;96535.72;;;18.40;25.97
49943;BME280;36011;53.362;58.948;2023-04-27T15:44:43;96533.84;;;18.32;26.18
49943;BME280;36011;53.362;58.948;2023-04-27T15:47:48;96531.50;;;18.11;26.49
49943;BME280;36011;53.362;58.948;2023-04-27T15:50:50;96533.72;;;18.16;26.58
49943;BME280;36011;53.362;58.948;2023-04-27T15:53:54;96532.66;;;18.09;26.75
49943;BME280;36011;53.362;58.948;2023-04-27T15:56:58;96539.88;;;18.16;26.51
49943;BME280;36011;53.362;58.948;2023-04-27T16:00:07;96537.44;;;18.05;26.43
49943;BME280;36011;53.362;58.948;2023-04-27T16:03:15;96541.25;;;18.21;26.74
49943;BME280;36011;53.362;58.948;2023-04-27T16:06:20;96542.16;;;18.11;26.54
49943;BME280;36011;53.362;58.948;2023-04-27T16:09:24;96545.28;;;18.07;26.59
49943;BME280;36011;53.362;58.948;2023-04-27T16:12:29;96547.56;;;18.02;26.91
49943;BME280;36011;53.362;58.948;2023-04-27T16:15:33;96543.03;;;18.20;26.67